createdAt,value
2022-12-23T00:01:13.233Z,100207.78
2022-12-23T00:03:39.872Z,100211.34
2022-12-23T00:06:14.985Z,100203.41
2022-12-23T00:08:42.301Z,100212.19
2022-12-23T00:11:15.179Z,100207.00
2022-12-23T00:14:00.739Z,100209.56
2022-12-23T00:16:27.406Z,100215.78
2022-12-23T00:18:54.388Z,100207.75
2022-12-23T00:21:21.490Z,100203.31
2022-12-23T00:23:49.973Z,100209.69
2022-12-23T00:26:24.920Z,100211.50
2022-12-23T00:28:51.980Z,100208.81
2022-12-23T00:31:21.191Z,100199.03
2022-12-23T00:33:49.352Z,100200.84
2022-12-23T00:36:23.846Z,100203.47
2022-12-23T00:39:09.241Z,100209.81
2022-12-23T00:41:54.477Z,100219.66
2022-12-23T00:44:21.178Z,100215.31
2022-12-23T00:46:47.816Z,100220.56
2022-12-23T00:49:35.209Z,100222.47
2022-12-23T00:52:01.775Z,100226.00
2022-12-23T00:54:28.911Z,100228.75
2022-12-23T00:56:55.461Z,100232.28
2022-12-23T00:59:22.006Z,100222.47
2022-12-23T01:02:07.100Z,100229.66
2022-12-23T01:04:52.421Z,100227.84
2022-12-23T01:07:19.221Z,100235.91
2022-12-23T01:09:45.806Z,100239.50
2022-12-23T01:12:13.421Z,100251.91
2022-12-23T01:14:40.188Z,100249.28
2022-12-23T01:17:08.118Z,100249.28
2022-12-23T01:19:35.003Z,100252.03
2022-12-23T01:22:01.526Z,100246.59
2022-12-23T01:24:29.727Z,100236.09
2022-12-23T01:26:56.425Z,100244.94
2022-12-23T01:29:23.049Z,100244.00
2022-12-23T01:31:49.659Z,100262.00
2022-12-23T01:34:16.336Z,100261.94
2022-12-23T01:36:43.882Z,100269.09
2022-12-23T01:39:10.431Z,100258.44
2022-12-23T01:41:55.230Z,100264.59
2022-12-23T01:44:56.881Z,100261.94
2022-12-23T01:47:29.373Z,100257.53
2022-12-23T01:50:08.452Z,100258.47
2022-12-23T01:52:39.982Z,100265.59
2022-12-23T01:55:06.982Z,100261.19
2022-12-23T01:57:34.442Z,100275.44
2022-12-23T02:00:19.487Z,100281.72
2022-12-23T02:03:05.093Z,100294.09
2022-12-23T02:05:32.005Z,100290.66
2022-12-23T02:08:16.852Z,100292.41
2022-12-23T02:11:19.280Z,100302.25
2022-12-23T02:14:36.867Z,100296.03
2022-12-23T02:17:41.684Z,100300.44
2022-12-23T02:20:20.119Z,100303.97
2022-12-23T02:22:52.638Z,100317.38
2022-12-23T02:25:26.812Z,100315.66
2022-12-23T02:28:21.235Z,100320.88
2022-12-23T02:30:52.462Z,100329.97
2022-12-23T02:33:47.141Z,100326.44
2022-12-23T02:36:32.174Z,100321.09
2022-12-23T02:39:10.729Z,100318.38
2022-12-23T02:41:51.427Z,100321.91
2022-12-23T02:44:38.140Z,100322.88
2022-12-23T02:47:17.838Z,100335.25
2022-12-23T02:49:51.417Z,100342.41
2022-12-23T02:52:21.450Z,100338.91
2022-12-23T02:54:54.310Z,100341.75
2022-12-23T02:57:24.623Z,100337.25
2022-12-23T02:59:52.303Z,100330.88
2022-12-23T03:02:19.817Z,100339.03
2022-12-23T03:04:46.481Z,100344.28
2022-12-23T03:07:31.861Z,100341.63
2022-12-23T03:10:17.130Z,100347.75
2022-12-23T03:13:01.600Z,100351.44
2022-12-23T03:15:28.100Z,100347.88
2022-12-23T03:18:07.782Z,100354.13
2022-12-23T03:20:54.895Z,100367.50
2022-12-23T03:23:29.548Z,100376.44
2022-12-23T03:25:56.013Z,100384.44
2022-12-23T03:28:44.006Z,100377.31
2022-12-23T03:31:17.678Z,100380.06
2022-12-23T03:33:48.259Z,100386.31
2022-12-23T03:36:25.457Z,100385.25
2022-12-23T03:38:53.806Z,100375.38
2022-12-23T03:41:25.882Z,100372.84
2022-12-23T03:44:10.916Z,100384.38
2022-12-23T03:46:40.633Z,100383.63
2022-12-23T03:49:10.120Z,100389.91
2022-12-23T03:51:44.810Z,100384.56
2022-12-23T03:54:16.570Z,100381.78
2022-12-23T03:56:49.991Z,100372.94
2022-12-23T03:59:22.040Z,100378.28
2022-12-23T04:02:17.422Z,100388.16
2022-12-23T04:04:46.930Z,100389.81
2022-12-23T04:07:21.575Z,100391.69
2022-12-23T04:09:48.477Z,100397.91
2022-12-23T04:12:15.349Z,100393.59
2022-12-23T04:14:48.673Z,100397.91
2022-12-23T04:17:16.099Z,100405.13
2022-12-23T04:19:45.418Z,100408.72
2022-12-23T04:22:13.712Z,100398.84
2022-12-23T04:24:40.339Z,100406.03
2022-12-23T04:27:07.976Z,100411.34
2022-12-23T04:29:34.516Z,100416.66
2022-12-23T04:32:01.110Z,100405.09
2022-12-23T04:34:27.666Z,100406.03
2022-12-23T04:36:54.298Z,100412.25
2022-12-23T04:39:20.872Z,100406.88
2022-12-23T04:41:47.762Z,100405.97
2022-12-23T04:44:14.328Z,100402.44
2022-12-23T04:46:40.971Z,100408.63
2022-12-23T04:49:07.779Z,100420.28
2022-12-23T04:51:34.391Z,100417.63
2022-12-23T04:54:00.924Z,100415.91
2022-12-23T04:56:27.451Z,100416.81
2022-12-23T04:58:54.051Z,100417.72
2022-12-23T05:01:20.711Z,100423.06
2022-12-23T05:03:47.264Z,100434.53
2022-12-23T05:06:13.820Z,100431.97
2022-12-23T05:08:40.349Z,100431.94
2022-12-23T05:11:07.538Z,100428.44
2022-12-23T05:13:34.143Z,100432.09
2022-12-23T05:16:00.750Z,100427.59
2022-12-23T05:18:27.386Z,100430.09
2022-12-23T05:20:54.527Z,100422.25
2022-12-23T05:23:21.075Z,100431.16
2022-12-23T05:25:55.089Z,100438.19
2022-12-23T05:28:22.308Z,100426.69
2022-12-23T05:30:48.995Z,100433.75
2022-12-23T05:33:15.884Z,100432.94
2022-12-23T05:35:42.479Z,100424.97
2022-12-23T05:38:09.038Z,100428.53
2022-12-23T05:40:35.620Z,100418.69
2022-12-23T05:43:02.396Z,100423.09
2022-12-23T05:45:29.183Z,100426.69
2022-12-23T05:47:55.846Z,100416.00
2022-12-23T05:50:22.416Z,100416.16
2022-12-23T05:52:48.994Z,100426.75
2022-12-23T05:55:15.593Z,100430.38
2022-12-23T05:57:42.157Z,100439.31
2022-12-23T06:00:09.703Z,100453.44
2022-12-23T06:02:36.451Z,100444.53
2022-12-23T06:05:03.190Z,100441.06
2022-12-23T06:07:29.715Z,100442.91
2022-12-23T06:09:56.273Z,100438.41
2022-12-23T06:12:22.802Z,100437.44
2022-12-23T06:14:49.454Z,100427.72
2022-12-23T06:17:16.031Z,100435.72
2022-12-23T06:19:42.568Z,100441.09
2022-12-23T06:22:09.234Z,100439.31
2022-12-23T06:24:35.770Z,100433.88
2022-12-23T06:27:02.311Z,100439.34
2022-12-23T06:29:29.313Z,100434.00
2022-12-23T06:31:55.910Z,100448.22
2022-12-23T06:34:22.466Z,100456.22
2022-12-23T06:36:49.023Z,100459.00
2022-12-23T06:39:15.672Z,100460.72
2022-12-23T06:41:42.209Z,100467.78
2022-12-23T06:44:10.058Z,100477.63
2022-12-23T06:46:36.597Z,100474.09
2022-12-23T06:49:09.054Z,100483.00
2022-12-23T06:51:39.298Z,100478.50
2022-12-23T06:54:05.821Z,100492.84
2022-12-23T06:56:33.454Z,100489.25
2022-12-23T06:59:00.110Z,100498.13
2022-12-23T07:01:26.801Z,100509.72
2022-12-23T07:03:53.427Z,100504.44
2022-12-23T07:06:19.964Z,100518.63
2022-12-23T07:08:46.524Z,100519.50
2022-12-23T07:11:13.058Z,100525.59
2022-12-23T07:13:39.586Z,100524.63
2022-12-23T07:16:07.964Z,100522.91
2022-12-23T07:18:35.045Z,100531.84
2022-12-23T07:21:02.363Z,100529.94
2022-12-23T07:23:29.289Z,100535.09
2022-12-23T07:25:55.862Z,100529.69
2022-12-23T07:28:25.167Z,100537.69
2022-12-23T07:30:51.714Z,100536.75
2022-12-23T07:33:18.261Z,100543.94
2022-12-23T07:35:44.812Z,100550.22
2022-12-23T07:38:11.335Z,100556.50
2022-12-23T07:40:37.887Z,100543.94
2022-12-23T07:43:05.619Z,100543.00
2022-12-23T07:45:32.187Z,100546.41
2022-12-23T07:48:00.510Z,100548.09
2022-12-23T07:50:27.665Z,100534.66
2022-12-23T07:52:54.658Z,100537.34
2022-12-23T07:55:21.551Z,100520.41
2022-12-23T07:57:51.858Z,100520.47
2022-12-23T08:00:19.439Z,100535.72
2022-12-23T08:02:46.681Z,100534.78
2022-12-23T08:05:13.687Z,100539.31
2022-12-23T08:07:40.401Z,100543.66
2022-12-23T08:10:07.588Z,100551.56
2022-12-23T08:12:34.372Z,100546.06
2022-12-23T08:15:00.909Z,100542.44
2022-12-23T08:17:28.912Z,100540.56
2022-12-23T08:19:55.667Z,100537.97
2022-12-23T08:22:22.445Z,100529.97
2022-12-23T08:24:49.024Z,100524.47
2022-12-23T08:27:16.353Z,100512.75
2022-12-23T08:29:42.930Z,100511.75
2022-12-23T08:32:09.478Z,100497.41
2022-12-23T08:34:36.376Z,100508.06
2022-12-23T08:37:02.923Z,100510.63
2022-12-23T08:39:29.474Z,100515.84
2022-12-23T08:41:56.169Z,100515.78
2022-12-23T08:44:22.845Z,100516.66
2022-12-23T08:46:52.105Z,100520.25
2022-12-23T08:49:18.684Z,100523.88
2022-12-23T08:51:45.489Z,100514.91
2022-12-23T08:54:12.283Z,100518.47
2022-12-23T08:56:42.178Z,100514.06
2022-12-23T08:59:18.582Z,100511.19
2022-12-23T09:01:47.346Z,100516.44
2022-12-23T09:04:14.063Z,100522.72
2022-12-23T09:06:42.307Z,100528.88
2022-12-23T09:09:11.674Z,100532.34
2022-12-23T09:11:38.297Z,100530.53
2022-12-23T09:14:05.223Z,100525.03
2022-12-23T09:16:32.288Z,100516.06
2022-12-23T09:18:58.989Z,100516.00
2022-12-23T09:21:25.595Z,100515.09
2022-12-23T09:23:52.692Z,100507.13
2022-12-23T09:26:21.751Z,100505.25
2022-12-23T09:28:48.333Z,100513.47
2022-12-23T09:31:15.129Z,100512.56
2022-12-23T09:33:41.943Z,100510.78
2022-12-23T09:36:08.889Z,100513.47
2022-12-23T09:38:36.122Z,100509.88
2022-12-23T09:41:35.483Z,100493.66
2022-12-23T09:44:12.836Z,100496.41
2022-12-23T09:46:47.320Z,100481.31
2022-12-23T09:49:16.664Z,100477.84
2022-12-23T09:51:43.766Z,100470.63
2022-12-23T09:54:17.356Z,100474.16
2022-12-23T09:56:54.771Z,100468.91
2022-12-23T09:59:43.093Z,100465.31
2022-12-23T10:02:38.723Z,100465.13
2022-12-23T10:05:32.068Z,100472.25
2022-12-23T10:08:14.188Z,100469.34
2022-12-23T10:10:47.318Z,100472.09
2022-12-23T10:13:41.375Z,100472.03
2022-12-23T10:16:09.727Z,100482.69
2022-12-23T10:18:39.336Z,100466.56
2022-12-23T10:21:18.576Z,100470.28
2022-12-23T10:23:50.494Z,100460.47
2022-12-23T10:26:24.367Z,100452.50
2022-12-23T10:29:08.005Z,100472.88
2022-12-23T10:32:06.102Z,100481.78
2022-12-23T10:34:52.766Z,100474.75
2022-12-23T10:37:52.102Z,100455.00
2022-12-23T10:40:56.174Z,100455.09
2022-12-23T10:43:40.999Z,100446.34
2022-12-23T10:46:17.598Z,100445.22
2022-12-23T10:49:25.773Z,100447.22
2022-12-23T10:51:58.250Z,100446.03
2022-12-23T10:54:32.165Z,100440.63
2022-12-23T10:56:58.843Z,100441.50
2022-12-23T10:59:31.586Z,100431.63
2022-12-23T11:02:13.602Z,100435.31
2022-12-23T11:04:42.660Z,100443.25
2022-12-23T11:07:42.969Z,100434.31
2022-12-23T11:10:17.110Z,100434.31
2022-12-23T11:12:49.943Z,100422.69
2022-12-23T11:15:32.548Z,100426.06
2022-12-23T11:18:07.606Z,100426.06
2022-12-23T11:20:36.374Z,100420.72
2022-12-23T11:23:04.732Z,100422.50
2022-12-23T11:25:42.066Z,100411.81
2022-12-23T11:28:19.675Z,100397.78
2022-12-23T11:30:55.964Z,100390.53
2022-12-23T11:33:30.337Z,100390.59
2022-12-23T11:36:12.056Z,100387.72
2022-12-23T11:38:51.386Z,100386.00
2022-12-23T11:41:22.759Z,100400.22
2022-12-23T11:43:58.310Z,100388.78
2022-12-23T11:46:30.005Z,100382.41
2022-12-23T11:49:21.235Z,100369.97
2022-12-23T11:52:07.524Z,100368.19
2022-12-23T11:54:34.570Z,100362.06
2022-12-23T11:57:03.400Z,100355.72
2022-12-23T11:59:33.588Z,100357.41
2022-12-23T12:02:02.354Z,100342.16
2022-12-23T12:04:33.017Z,100329.63
2022-12-23T12:07:00.708Z,100324.44
2022-12-23T12:09:29.727Z,100317.31
2022-12-23T12:12:05.691Z,100319.88
2022-12-23T12:14:41.918Z,100325.34
2022-12-23T12:17:31.195Z,100325.19
2022-12-23T12:20:15.219Z,100318.13
2022-12-23T12:22:46.788Z,100319.88
2022-12-23T12:25:27.859Z,100321.66
2022-12-23T12:28:00.785Z,100324.53
2022-12-23T12:30:34.696Z,100327.91
2022-12-23T12:33:06.035Z,100318.91
2022-12-23T12:35:44.831Z,100320.03
2022-12-23T12:38:30.237Z,100325.50
2022-12-23T12:41:28.218Z,100318.13
2022-12-23T12:43:57.435Z,100302.84
2022-12-23T12:46:52.997Z,100293.75
2022-12-23T12:49:39.096Z,100292.81
2022-12-23T12:52:24.085Z,100291.06
2022-12-23T12:55:17.481Z,100284.06
2022-12-23T12:57:44.041Z,100282.25
2022-12-23T13:00:18.205Z,100275.13
2022-12-23T13:02:53.501Z,100280.25
2022-12-23T13:05:55.210Z,100278.50
2022-12-23T13:08:43.438Z,100283.78
2022-12-23T13:11:16.349Z,100283.84
2022-12-23T13:14:01.038Z,100285.38
2022-12-23T13:17:01.554Z,100274.81
2022-12-23T13:19:30.714Z,100276.66
2022-12-23T13:22:13.169Z,100265.94
2022-12-23T13:24:56.965Z,100267.78
2022-12-23T13:27:30.617Z,100269.47
2022-12-23T13:30:03.272Z,100258.81
2022-12-23T13:33:05.179Z,100265.94
2022-12-23T13:35:40.737Z,100259.66
2022-12-23T13:38:16.612Z,100264.09
2022-12-23T13:40:57.608Z,100262.41
2022-12-23T13:43:25.749Z,100253.47
2022-12-23T13:45:54.258Z,100249.00
2022-12-23T13:48:41.127Z,100248.81
2022-12-23T13:51:31.210Z,100248.81
2022-12-23T13:54:18.760Z,100249.69
2022-12-23T13:57:07.991Z,100251.47
2022-12-23T13:59:58.421Z,100238.91
2022-12-23T14:02:36.939Z,100235.44
2022-12-23T14:05:05.716Z,100238.22
2022-12-23T14:07:33.542Z,100228.50
2022-12-23T14:10:11.721Z,100234.69
2022-12-23T14:12:42.687Z,100222.19
2022-12-23T14:15:26.090Z,100210.34
2022-12-23T14:18:06.834Z,100214.13
2022-12-23T14:20:39.318Z,100208.66
2022-12-23T14:23:28.560Z,100207.00
2022-12-23T14:26:07.147Z,100202.66
2022-12-23T14:29:12.752Z,100198.16
2022-12-23T14:31:46.307Z,100200.84
2022-12-23T14:34:18.722Z,100199.13
2022-12-23T14:37:23.617Z,100199.88
2022-12-23T14:39:51.711Z,100194.63
2022-12-23T14:42:47.516Z,100186.56
2022-12-23T14:45:51.055Z,100188.47
2022-12-23T14:48:35.997Z,100190.38
2022-12-23T14:51:24.869Z,100192.06
2022-12-23T14:53:52.081Z,100187.63
2022-12-23T14:56:18.554Z,100192.16
2022-12-23T14:59:05.080Z,100195.66
2022-12-23T15:01:53.343Z,100195.66
2022-12-23T15:04:26.123Z,100197.56
2022-12-23T15:06:56.827Z,100183.25
2022-12-23T15:09:29.012Z,100193.97
2022-12-23T15:11:57.773Z,100187.88
2022-12-23T15:14:42.542Z,100185.19
2022-12-23T15:17:26.756Z,100200.34
2022-12-23T15:19:54.275Z,100189.53
2022-12-23T15:22:25.607Z,100189.47
2022-12-23T15:24:56.793Z,100188.72
2022-12-23T15:27:28.725Z,100184.28
2022-12-23T15:29:56.086Z,100177.16
2022-12-23T15:32:23.836Z,100172.66
2022-12-23T15:34:51.832Z,100172.66
2022-12-23T15:37:29.022Z,100176.38
2022-12-23T15:40:03.397Z,100173.81
2022-12-23T15:42:35.371Z,100171.88
2022-12-23T15:45:21.149Z,100168.03
2022-12-23T15:47:47.666Z,100166.28
2022-12-23T15:50:16.506Z,100161.03
2022-12-23T15:52:44.998Z,100161.09
2022-12-23T15:55:13.076Z,100163.84
2022-12-23T15:57:50.146Z,100159.44
2022-12-23T16:00:21.689Z,100154.94
2022-12-23T16:03:00.495Z,100157.56
2022-12-23T16:05:35.433Z,100151.28
2022-12-23T16:08:29.661Z,100161.00
2022-12-23T16:10:56.899Z,100153.97
2022-12-23T16:13:23.895Z,100155.72
2022-12-23T16:15:50.562Z,100148.59
2022-12-23T16:18:19.778Z,100152.31
2022-12-23T16:20:53.678Z,100143.44
2022-12-23T16:23:21.036Z,100146.06
2022-12-23T16:25:50.836Z,100150.63
2022-12-23T16:28:29.950Z,100139.84
2022-12-23T16:30:57.648Z,100139.66
2022-12-23T16:33:34.208Z,100146.94
2022-12-23T16:36:20.644Z,100145.00
2022-12-23T16:38:48.598Z,100144.28
2022-12-23T16:41:15.179Z,100139.91
2022-12-23T16:43:47.703Z,100145.34
2022-12-23T16:46:19.445Z,100145.25
2022-12-23T16:48:51.589Z,100145.25
2022-12-23T16:51:20.448Z,100138.91
2022-12-23T16:53:51.319Z,100135.34
2022-12-23T16:56:19.527Z,100135.34
2022-12-23T16:58:46.484Z,100131.75
2022-12-23T17:01:18.735Z,100139.84
2022-12-23T17:03:45.292Z,100141.66
2022-12-23T17:06:13.726Z,100140.06
2022-12-23T17:08:40.677Z,100137.34
2022-12-23T17:11:15.886Z,100134.66
2022-12-23T17:13:42.474Z,100145.31
2022-12-23T17:16:15.434Z,100144.28
2022-12-23T17:18:42.089Z,100148.78
2022-12-23T17:21:18.673Z,100150.66
2022-12-23T17:23:45.237Z,100142.56
2022-12-23T17:26:11.770Z,100145.34
2022-12-23T17:28:38.357Z,100144.34
2022-12-23T17:31:12.019Z,100143.78
2022-12-23T17:33:40.967Z,100141.00
2022-12-23T17:36:08.616Z,100151.59
2022-12-23T17:38:35.165Z,100142.59
2022-12-23T17:41:01.763Z,100140.75
2022-12-23T17:43:28.387Z,100141.00
2022-12-23T17:45:55.749Z,100141.94
2022-12-23T17:48:28.017Z,100141.03
2022-12-23T17:50:57.838Z,100139.16
2022-12-23T17:53:24.389Z,100140.81
2022-12-23T17:55:50.949Z,100140.06
2022-12-23T17:58:17.552Z,100137.34
2022-12-23T18:00:44.244Z,100140.00
2022-12-23T18:03:22.211Z,100147.19
2022-12-23T18:05:49.189Z,100142.63
2022-12-23T18:08:16.905Z,100147.13
2022-12-23T18:10:43.652Z,100145.53
2022-12-23T18:13:15.095Z,100137.69
2022-12-23T18:15:43.515Z,100147.28
2022-12-23T18:18:26.032Z,100140.28
2022-12-23T18:20:56.700Z,100145.69
2022-12-23T18:23:29.286Z,100145.53
2022-12-23T18:25:56.831Z,100150.00
2022-12-23T18:28:24.191Z,100155.31
2022-12-23T18:30:56.220Z,100149.13
2022-12-23T18:33:24.199Z,100144.75
2022-12-23T18:35:51.085Z,100150.88
2022-12-23T18:38:18.383Z,100147.13
2022-12-23T18:40:45.287Z,100146.44
2022-12-23T18:43:20.054Z,100145.69
2022-12-23T18:45:52.452Z,100147.38
2022-12-23T18:48:19.985Z,100142.06
2022-12-23T18:50:46.734Z,100148.31
2022-12-23T18:53:23.889Z,100145.69
2022-12-23T18:55:51.685Z,100139.56
2022-12-23T18:58:18.509Z,100145.84
2022-12-23T19:00:45.858Z,100140.47
2022-12-23T19:03:27.932Z,100132.50
2022-12-23T19:05:55.405Z,100134.09
2022-12-23T19:08:26.632Z,100129.72
2022-12-23T19:10:55.479Z,100131.47
2022-12-23T19:13:22.053Z,100133.41
2022-12-23T19:15:48.882Z,100133.28
2022-12-23T19:18:17.989Z,100131.53
2022-12-23T19:20:47.361Z,100140.41
2022-12-23T19:23:14.120Z,100145.56
2022-12-23T19:25:42.123Z,100144.09
2022-12-23T19:28:08.936Z,100150.38
2022-12-23T19:30:35.558Z,100145.78
2022-12-23T19:33:02.296Z,100144.84
2022-12-23T19:35:28.833Z,100146.63
2022-12-23T19:37:55.377Z,100143.84
2022-12-23T19:40:21.919Z,100144.72
2022-12-23T19:42:48.489Z,100148.50
2022-12-23T19:45:15.055Z,100152.94
2022-12-23T19:47:41.608Z,100158.31
2022-12-23T19:50:08.910Z,100166.47
2022-12-23T19:52:35.577Z,100163.75
2022-12-23T19:55:02.165Z,100170.72
2022-12-23T19:57:28.739Z,100164.69
2022-12-23T19:59:55.274Z,100160.16
2022-12-23T20:02:23.425Z,100163.94
2022-12-23T20:04:50.069Z,100165.53
2022-12-23T20:07:16.915Z,100159.22
2022-12-23T20:09:43.495Z,100165.53
2022-12-23T20:12:10.056Z,100167.19
2022-12-23T20:14:36.796Z,100165.59
2022-12-23T20:17:03.555Z,100160.34
2022-12-23T20:19:30.097Z,100164.84
2022-12-23T20:21:56.658Z,100162.22
2022-12-23T20:24:23.200Z,100165.69
2022-12-23T20:26:49.725Z,100167.34
2022-12-23T20:29:16.325Z,100172.53
2022-12-23T20:31:43.454Z,100172.38
2022-12-23T20:34:14.124Z,100169.13
2022-12-23T20:36:40.692Z,100171.03
2022-12-23T20:39:07.311Z,100169.28
2022-12-23T20:41:34.299Z,100163.94
2022-12-23T20:46:47.648Z,100164.00
2022-12-23T20:49:14.230Z,100164.00
2022-12-23T20:51:40.821Z,100164.69
2022-12-23T20:54:07.376Z,100169.28
2022-12-23T20:56:33.921Z,100173.09
2022-12-23T20:59:03.995Z,100176.47
2022-12-23T21:01:48.822Z,100176.63
2022-12-23T21:04:16.696Z,100176.31
2022-12-23T21:06:43.968Z,100172.94
2022-12-23T21:09:12.288Z,100172.88
2022-12-23T21:11:43.031Z,100174.69
2022-12-23T21:14:10.590Z,100182.03
2022-12-23T21:16:38.659Z,100176.53
2022-12-23T21:19:14.661Z,100185.72
2022-12-23T21:21:41.233Z,100176.78
2022-12-23T21:24:07.864Z,100180.44
2022-12-23T21:26:35.493Z,100184.13
2022-12-23T21:29:03.921Z,100176.16
2022-12-23T21:31:32.130Z,100178.75
2022-12-23T21:33:58.982Z,100179.47
2022-12-23T21:36:28.090Z,100180.63
2022-12-23T21:38:54.723Z,100184.06
2022-12-23T21:41:27.379Z,100185.22
2022-12-23T21:43:55.529Z,100184.28
2022-12-23T21:46:23.444Z,100183.25
2022-12-23T21:48:50.443Z,100185.44
2022-12-23T21:51:21.983Z,100186.25
2022-12-23T21:53:50.554Z,100191.53
2022-12-23T21:56:20.062Z,100197.84
2022-12-23T21:58:46.932Z,100194.38
2022-12-23T22:01:18.757Z,100198.88
2022-12-23T22:03:47.284Z,100207.78
2022-12-23T22:06:15.878Z,100209.31
2022-12-23T22:08:42.504Z,100207.59
2022-12-23T22:11:11.984Z,100210.59
2022-12-23T22:13:39.079Z,100207.00
2022-12-23T22:16:09.378Z,100208.81
2022-12-23T22:18:37.152Z,100209.56
2022-12-23T22:21:05.326Z,100215.91
2022-12-23T22:23:31.884Z,100217.50
2022-12-23T22:25:58.405Z,100220.19
2022-12-23T22:28:24.964Z,100222.16
2022-12-23T22:30:51.593Z,100223.88
2022-12-23T22:33:18.149Z,100220.38
2022-12-23T22:35:54.695Z,100222.84
2022-12-23T22:38:21.367Z,100229.19
2022-12-23T22:40:51.666Z,100232.63
2022-12-23T22:43:18.751Z,100234.72
2022-12-23T22:45:45.617Z,100232.91
2022-12-23T22:48:12.568Z,100231.06
2022-12-23T22:50:39.496Z,100231.22
2022-12-23T22:53:06.058Z,100229.50
2022-12-23T22:55:32.628Z,100237.53
2022-12-23T22:57:59.145Z,100238.31
2022-12-23T23:00:25.700Z,100237.41
2022-12-23T23:02:52.244Z,100238.44
2022-12-23T23:05:18.804Z,100238.59
2022-12-23T23:07:45.354Z,100251.03
2022-12-23T23:10:11.865Z,100247.41
2022-12-23T23:12:39.605Z,100260.16
2022-12-23T23:15:06.828Z,100256.41
2022-12-23T23:17:33.431Z,100257.31
2022-12-23T23:20:01.183Z,100257.38
2022-12-23T23:22:27.713Z,100263.56
2022-12-23T23:24:54.252Z,100256.66
2022-12-23T23:27:20.873Z,100267.28
2022-12-23T23:29:47.475Z,100271.06
2022-12-23T23:32:14.048Z,100267.28
2022-12-23T23:34:42.043Z,100269.38
2022-12-23T23:37:08.589Z,100269.38
2022-12-23T23:39:35.129Z,100265.72
2022-12-23T23:42:01.706Z,100267.66
2022-12-23T23:44:28.240Z,100262.31
2022-12-23T23:46:54.807Z,100256.97
2022-12-23T23:49:21.979Z,100265.69
2022-12-23T23:51:49.294Z,100263.22
2022-12-23T23:54:16.103Z,100258.75
2022-12-23T23:56:42.649Z,100268.41
2022-12-23T23:59:09.466Z,100269.53
